Time;durP1;ratioP1;P1;durP2;ratioP2;P2;SDS_P1;SDS_P2;PMS_P1;PMS_P2;Temp;Humidity;BMP_temperature;BMP_pressure;BME280_temperature;BME280_humidity;BME280_pressure;Samples;Min_cycle;Max_cycle;Signal;HPM_P1;HPM_P2
2023/04/27 00:03:10;;;;;;;8.43;1.77;;;;;;;9.68;52.36;100550.66;10422977;28;20112;-57
2023/04/27 00:08:12;;;;;;;3.05;2.20;;;;;;;9.66;52.31;100547.28;10421601;28;20041;-58
2023/04/27 00:13:13;;;;;;;11.30;2.17;;;;;;;9.61;52.33;100545.06;10418473;28;20053;-59
2023/04/27 00:18:15;;;;;;;4.63;2.05;;;;;;;9.67;52.83;100533.69;10423206;28;20042;-58
2023/04/27 00:23:16;;;;;;;5.85;3.20;;;;;;;9.68;52.65;100542.59;10421096;28;20063;-58
2023/04/27 00:28:17;;;;;;;6.05;2.95;;;;;;;9.68;52.70;100534.53;10419296;28;20098;-58
2023/04/27 00:33:20;;;;;;;7.30;2.75;;;;;;;9.64;53.22;100519.78;10423131;28;20598;-58
2023/04/27 00:38:21;;;;;;;5.50;2.63;;;;;;;9.62;52.95;100521.78;10422889;28;20095;-58
2023/04/27 00:43:22;;;;;;;5.63;3.13;;;;;;;9.63;53.39;100524.28;10430350;28;20099;-58
2023/04/27 00:48:24;;;;;;;5.57;2.65;;;;;;;9.58;53.01;100529.31;10424231;28;20778;-58
2023/04/27 00:53:26;;;;;;;6.85;2.95;;;;;;;9.50;53.66;100529.31;10427212;28;20105;-57
2023/04/27 00:58:27;;;;;;;8.70;3.13;;;;;;;9.45;53.10;100523.59;10430997;28;20523;-59
2023/04/27 01:03:29;;;;;;;5.15;2.85;;;;;;;9.29;53.63;100524.38;10424242;28;20056;-59
2023/04/27 01:08:31;;;;;;;10.18;4.45;;;;;;;9.10;54.25;100531.72;10426523;28;20057;-59
2023/04/27 01:13:32;;;;;;;7.97;4.07;;;;;;;9.05;54.40;100542.06;10413644;28;20465;-58
2023/04/27 01:18:33;;;;;;;7.05;3.35;;;;;;;8.99;54.35;100542.72;10421933;28;20103;-56
2023/04/27 01:23:35;;;;;;;7.03;3.40;;;;;;;8.95;54.64;100543.22;10427701;28;20080;-59
2023/04/27 01:28:36;;;;;;;4.32;2.80;;;;;;;8.92;54.71;100539.81;10424777;28;20404;-59
2023/04/27 01:33:38;;;;;;;5.13;3.38;;;;;;;8.86;54.79;100539.63;10423208;28;20512;-59
2023/04/27 01:38:40;;;;;;;5.25;2.78;;;;;;;8.87;54.92;100549.38;10426519;28;20509;-59
2023/04/27 01:43:42;;;;;;;9.25;2.53;;;;;;;8.63;55.09;100553.59;10426450;28;20061;-59
2023/04/27 01:48:43;;;;;;;6.97;3.05;;;;;;;8.44;55.32;100551.94;10416236;28;20140;-58
2023/04/27 01:53:45;;;;;;;3.22;2.38;;;;;;;8.34;56.24;100564.59;10422870;28;20831;-59
2023/04/27 01:58:46;;;;;;;4.05;2.40;;;;;;;8.44;55.20;100568.03;10425772;28;20106;-58
2023/04/27 02:03:50;;;;;;;6.07;2.60;;;;;;;8.50;54.83;100567.41;10428173;28;20072;-58
2023/04/27 02:08:52;;;;;;;7.53;2.70;;;;;;;8.61;54.75;100571.66;10429385;28;20051;-59
2023/04/27 02:13:54;;;;;;;3.72;2.55;;;;;;;8.64;54.91;100565.16;10422617;28;20059;-59
2023/04/27 02:18:55;;;;;;;4.32;2.38;;;;;;;8.68;55.64;100569.19;10421716;28;20053;-59
2023/04/27 02:23:56;;;;;;;4.97;2.72;;;;;;;8.69;55.09;100569.03;10420245;28;20065;-58
2023/04/27 02:28:58;;;;;;;5.10;2.88;;;;;;;8.68;55.24;100571.88;10420769;28;20045;-58
2023/04/27 02:34:00;;;;;;;6.60;3.20;;;;;;;8.59;55.74;100573.66;10425916;28;20048;-58
2023/04/27 02:39:01;;;;;;;4.72;2.47;;;;;;;8.50;55.36;100583.47;10425597;28;20635;-58
2023/04/27 02:44:03;;;;;;;7.93;2.60;;;;;;;8.38;55.52;100587.38;10422945;28;20046;-58
2023/04/27 02:49:04;;;;;;;6.88;3.28;;;;;;;8.31;55.81;100581.81;10422697;28;20076;-59
2023/04/27 02:54:06;;;;;;;7.65;3.65;;;;;;;8.26;55.61;100583.28;10425992;28;20681;-58
2023/04/27 02:59:07;;;;;;;6.65;2.40;;;;;;;8.21;55.52;100581.03;10419612;28;20148;-59
2023/04/27 03:04:09;;;;;;;5.32;3.08;;;;;;;8.20;56.04;100578.53;10425552;28;20072;-59
2023/04/27 03:09:11;;;;;;;7.38;3.42;;;;;;;8.23;55.95;100578.22;10426114;28;20400;-59
2023/04/27 03:14:13;;;;;;;7.40;4.18;;;;;;;7.98;56.27;100572.66;10423417;28;20495;-58
2023/04/27 03:19:14;;;;;;;7.05;3.25;;;;;;;8.00;56.03;100568.00;10416620;28;20451;-59
2023/04/27 03:24:16;;;;;;;9.57;2.80;;;;;;;8.11;56.18;100567.72;10421995;28;20045;-58
2023/04/27 03:29:18;;;;;;;9.43;1.90;;;;;;;8.20;56.15;100568.66;10422772;28;20041;-59
2023/04/27 03:34:20;;;;;;;6.65;1.95;;;;;;;8.16;55.79;100569.13;10421678;28;20582;-57
2023/04/27 03:39:22;;;;;;;2.85;1.88;;;;;;;8.19;55.14;100556.25;10419524;28;20560;-59
2023/04/27 03:44:23;;;;;;;5.72;2.33;;;;;;;8.27;55.49;100558.16;10419631;28;20103;-59
2023/04/27 03:49:25;;;;;;;5.32;1.67;;;;;;;8.26;55.91;100559.16;10413086;28;20045;-56
2023/04/27 03:54:26;;;;;;;4.15;1.90;;;;;;;8.22;56.04;100555.13;10420959;28;20073;-57
2023/04/27 03:59:29;;;;;;;6.47;2.13;;;;;;;8.23;56.26;100556.78;10420963;28;20107;-55
2023/04/27 04:04:30;;;;;;;5.07;2.72;;;;;;;8.22;56.38;100569.34;10421515;28;20486;-56
2023/04/27 04:09:32;;;;;;;4.72;2.83;;;;;;;8.21;56.23;100569.50;10430980;28;20385;-59
2023/04/27 04:14:33;;;;;;;5.55;3.40;;;;;;;8.24;56.36;100574.56;10449018;28;20041;-59
2023/04/27 04:19:35;;;;;;;4.15;2.30;;;;;;;8.24;56.19;100572.69;10446197;28;20688;-58
2023/04/27 04:24:36;;;;;;;7.85;3.22;;;;;;;8.26;56.50;100583.28;10434524;28;20064;-59
2023/04/27 04:29:38;;;;;;;4.00;2.58;;;;;;;8.12;56.23;100582.81;10435599;28;20068;-58
2023/04/27 04:34:39;;;;;;;6.68;2.97;;;;;;;8.10;56.34;100584.81;10430348;28;20049;-58
2023/04/27 04:39:40;;;;;;;6.95;2.95;;;;;;;8.07;56.60;100598.50;10426441;28;20054;-58
2023/04/27 04:44:42;;;;;;;7.70;3.03;;;;;;;8.04;56.43;100588.09;10430312;28;20080;-58
2023/04/27 04:49:43;;;;;;;6.30;3.70;;;;;;;7.95;56.56;100584.50;10429292;28;20049;-58
2023/04/27 04:54:45;;;;;;;7.40;3.80;;;;;;;7.95;56.86;100591.69;10430942;28;20044;-59
2023/04/27 04:59:46;;;;;;;8.00;3.38;;;;;;;7.95;56.99;100591.69;10431349;28;20040;-59
2023/04/27 05:04:48;;;;;;;4.05;2.90;;;;;;;7.98;56.37;100596.75;10429368;28;20102;-59
2023/04/27 05:09:49;;;;;;;6.15;3.08;;;;;;;8.05;56.23;100595.13;10431976;28;20076;-58
2023/04/27 05:14:52;;;;;;;6.65;2.63;;;;;;;8.09;56.33;100593.00;10437621;28;20452;-59
2023/04/27 05:19:53;;;;;;;13.82;2.90;;;;;;;8.09;56.60;100607.22;10442341;28;20045;-59
2023/04/27 05:24:56;;;;;;;9.95;3.10;;;;;;;8.16;56.60;100611.97;10438442;28;20053;-59
2023/04/27 05:29:57;;;;;;;11.60;3.50;;;;;;;8.24;56.68;100612.03;10441159;28;20083;-59
2023/04/27 05:34:58;;;;;;;8.00;3.70;;;;;;;8.40;56.14;100617.53;10436235;28;20041;-59
2023/04/27 05:40:00;;;;;;;8.30;3.83;;;;;;;8.44;56.09;100613.56;10433797;28;20045;-59
2023/04/27 05:45:02;;;;;;;5.35;2.78;;;;;;;8.56;55.96;100610.66;10440155;28;20107;-59
2023/04/27 05:50:05;;;;;;;5.20;2.80;;;;;;;8.68;56.01;100612.06;10431538;28;20688;-58
2023/04/27 05:55:07;;;;;;;3.08;2.60;;;;;;;8.80;56.03;100615.31;10430362;28;20075;-58
2023/04/27 06:00:09;;;;;;;5.72;3.15;;;;;;;9.04;55.52;100633.38;10410049;28;20040;-58
2023/04/27 06:05:11;;;;;;;5.07;2.20;;;;;;;9.19;55.21;100628.28;10429221;28;20037;-59
2023/04/27 06:10:13;;;;;;;4.15;2.50;;;;;;;9.39;55.08;100634.25;10429758;28;20513;-59
2023/04/27 06:15:15;;;;;;;11.75;2.78;;;;;;;9.60;54.99;100629.31;10434044;28;20603;-59
2023/04/27 06:20:17;;;;;;;4.05;2.33;;;;;;;9.85;54.74;100626.66;10433642;28;20587;-58
2023/04/27 06:25:18;;;;;;;9.52;3.05;;;;;;;10.00;54.44;100632.25;10424008;28;20068;-59
2023/04/27 06:30:20;;;;;;;3.45;1.80;;;;;;;10.24;53.79;100636.81;10392595;28;20049;-58
2023/04/27 06:35:21;;;;;;;3.25;1.52;;;;;;;10.37;53.09;100639.00;10398697;28;20069;-58
2023/04/27 06:40:24;;;;;;;5.40;1.77;;;;;;;10.64;52.71;100637.84;10420685;28;20060;-60
2023/04/27 06:45:26;;;;;;;7.70;1.73;;;;;;;10.88;52.04;100643.19;10426113;28;20470;-59
2023/04/27 06:50:28;;;;;;;5.75;1.50;;;;;;;11.13;51.42;100645.81;10426302;28;20156;-59
2023/04/27 06:55:29;;;;;;;6.78;1.50;;;;;;;11.34;50.43;100647.97;10424682;28;20056;-61
2023/04/27 07:00:31;;;;;;;4.07;1.50;;;;;;;11.42;50.17;100657.84;10422446;28;20042;-58
2023/04/27 07:05:33;;;;;;;3.83;1.88;;;;;;;11.49;49.50;100653.44;10422143;28;20143;-59
2023/04/27 07:10:34;;;;;;;4.75;1.52;;;;;;;11.67;49.32;100648.66;10421944;28;20061;-60
2023/04/27 07:15:36;;;;;;;4.72;1.30;;;;;;;11.76;48.73;100656.69;10424476;28;20575;-60
2023/04/27 07:20:37;;;;;;;3.30;1.10;;;;;;;12.08;48.48;100653.84;10428109;28;20076;-62
2023/04/27 07:25:39;;;;;;;3.72;1.85;;;;;;;12.26;48.02;100652.69;10413800;28;20481;-59
2023/04/27 07:30:41;;;;;;;8.20;2.25;;;;;;;12.35;47.27;100648.94;10423033;28;20045;-59
2023/04/27 07:35:42;;;;;;;10.20;2.83;;;;;;;12.33;47.19;100644.75;10425393;28;20079;-59
2023/04/27 07:40:45;;;;;;;4.55;1.75;;;;;;;12.55;46.79;100641.19;10423091;28;20124;-59
2023/04/27 07:45:46;;;;;;;4.68;1.58;;;;;;;12.68;46.60;100640.59;10419472;28;20099;-59
2023/04/27 07:50:48;;;;;;;6.28;1.92;;;;;;;12.85;45.81;100641.25;10419122;28;20567;-59
2023/04/27 07:55:49;;;;;;;4.40;1.95;;;;;;;13.02;45.43;100636.53;10422120;28;20041;-60
2023/04/27 08:00:51;;;;;;;8.43;2.20;;;;;;;13.04;45.12;100640.72;10424091;28;20461;-59
2023/04/27 08:05:52;;;;;;;7.05;2.58;;;;;;;13.10;44.88;100639.97;10422215;28;20053;-61
2023/04/27 08:10:54;;;;;;;6.25;2.40;;;;;;;13.23;45.11;100635.78;10419785;28;20049;-59
2023/04/27 08:15:58;;;;;;;7.82;3.15;;;;;;;13.29;44.42;100632.38;10418556;28;20079;-60
2023/04/27 08:20:59;;;;;;;5.53;3.33;;;;;;;13.28;44.24;100633.38;10420605;28;20617;-60
2023/04/27 08:26:00;;;;;;;12.23;2.95;;;;;;;13.41;44.09;100632.75;10418152;28;20076;-60
2023/04/27 08:31:02;;;;;;;8.73;2.72;;;;;;;13.66;44.43;100627.84;10399809;28;20136;-62
2023/04/27 08:36:04;;;;;;;5.70;2.30;;;;;;;13.91;43.59;100622.13;10416465;28;20041;-63
2023/04/27 08:41:05;;;;;;;8.57;2.22;;;;;;;14.00;42.81;100624.53;10416338;28;20037;-63
2023/04/27 08:46:23;;;;;;;7.65;2.55;;;;;;;14.25;42.53;100614.16;10413632;28;20081;-62
2023/04/27 08:51:26;;;;;;;5.57;1.27;;;;;;;14.20;42.01;100624.72;10423222;28;20098;-63
2023/04/27 08:56:28;;;;;;;11.52;1.60;;;;;;;14.34;41.44;100625.69;10420114;28;20392;-63
2023/04/27 09:01:31;;;;;;;3.28;1.88;;;;;;;14.52;41.19;100617.09;10427359;28;20037;-63
2023/04/27 09:06:34;;;;;;;7.00;1.40;;;;;;;14.66;40.77;100623.50;10433942;28;20732;-63
2023/04/27 09:11:37;;;;;;;3.78;1.25;;;;;;;14.82;40.26;100623.19;10429638;28;20136;-62
2023/04/27 09:16:39;;;;;;;4.03;1.58;;;;;;;15.00;40.04;100608.31;10426282;28;20048;-62
2023/04/27 09:21:42;;;;;;;3.72;1.20;;;;;;;15.33;39.49;100610.38;10424997;28;20059;-63
2023/04/27 09:26:48;;;;;;;5.65;2.45;;;;;;;15.58;38.62;100600.69;10424844;28;20088;-62
2023/04/27 09:31:49;;;;;;;6.53;2.20;;;;;;;15.58;38.82;100603.41;10427326;28;20103;-62
2023/04/27 09:36:52;;;;;;;3.80;1.77;;;;;;;15.56;38.72;100605.50;10422287;28;20045;-63
2023/04/27 09:41:53;;;;;;;3.90;1.67;;;;;;;15.82;37.91;100599.34;10425705;28;20955;-63
2023/04/27 09:46:57;;;;;;;5.15;1.55;;;;;;;16.14;37.17;100598.78;10429005;28;20073;-62
2023/04/27 09:51:58;;;;;;;5.38;1.17;;;;;;;16.33;36.88;100589.84;10420852;28;20116;-62
2023/04/27 09:57:14;;;;;;;7.22;1.90;;;;;;;16.55;36.54;100582.31;10424047;28;20049;-62
2023/04/27 10:02:17;;;;;;;7.25;2.00;;;;;;;16.48;36.43;100580.66;10428833;28;20071;-62
2023/04/27 10:07:27;;;;;;;5.00;1.40;;;;;;;16.51;36.35;100562.06;10424681;28;20103;-63
2023/04/27 10:12:37;;;;;;;4.00;1.40;;;;;;;16.83;36.02;100559.56;10425676;28;20132;-62
2023/04/27 10:17:47;;;;;;;7.68;1.52;;;;;;;16.90;36.10;100563.06;10427185;28;20076;-62
2023/04/27 10:22:51;;;;;;;6.18;2.35;;;;;;;17.37;35.67;100565.66;10424987;28;20037;-62
2023/04/27 10:28:00;;;;;;;6.68;1.50;;;;;;;17.61;35.26;100559.47;10426771;28;20123;-63
2023/04/27 10:33:10;;;;;;;3.83;1.30;;;;;;;17.87;34.75;100554.97;10422510;28;20096;-62
2023/04/27 10:38:17;;;;;;;5.03;1.70;;;;;;;18.34;33.93;100555.44;10424223;28;20049;-62
2023/04/27 10:43:27;;;;;;;5.53;2.20;;;;;;;18.79;33.31;100551.69;10424932;28;20515;-63
2023/04/27 10:48:29;;;;;;;8.30;2.03;;;;;;;19.13;33.44;100552.19;10424160;28;20530;-64
2023/04/27 10:53:34;;;;;;;3.75;1.75;;;;;;;19.45;32.82;100543.81;10422169;28;20065;-64
2023/04/27 10:58:37;;;;;;;5.03;1.48;;;;;;;19.75;32.44;100547.41;10417228;28;20098;-64
2023/04/27 11:03:45;;;;;;;5.55;2.00;;;;;;;20.19;31.78;100544.44;10428577;28;20099;-63
2023/04/27 11:08:47;;;;;;;2.13;1.70;;;;;;;20.35;31.57;100538.28;10408102;28;20041;-64
2023/04/27 11:13:49;;;;;;;5.18;2.05;;;;;;;20.19;30.67;100539.81;10423221;28;20061;-64
2023/04/27 11:18:50;;;;;;;8.32;1.73;;;;;;;20.11;30.85;100529.25;10422634;28;20071;-64
2023/04/27 11:23:52;;;;;;;4.90;1.63;;;;;;;20.40;30.15;100526.66;10423730;28;20037;-63
2023/04/27 11:29:03;;;;;;;4.90;1.67;;;;;;;20.45;30.06;100513.13;10412037;23;20086;-64
2023/04/27 11:34:06;;;;;;;5.75;2.10;;;;;;;20.86;30.29;100519.53;10423345;28;20049;-63
2023/04/27 11:39:15;;;;;;;4.68;1.73;;;;;;;21.25;29.63;100518.97;10427606;28;20044;-64
2023/04/27 11:44:17;;;;;;;6.38;2.40;;;;;;;21.50;29.56;100513.19;10426729;28;20045;-64
2023/04/27 11:49:18;;;;;;;4.88;2.40;;;;;;;21.50;28.94;100507.72;10423649;28;20110;-64
2023/04/27 11:54:27;;;;;;;5.28;2.05;;;;;;;21.17;29.19;100498.34;10425611;28;20742;-63
2023/04/27 11:59:28;;;;;;;7.50;1.83;;;;;;;21.63;28.89;100492.94;10421799;28;20057;-63
2023/04/27 12:04:30;;;;;;;8.40;2.83;;;;;;;21.93;28.06;100493.44;10428571;28;20065;-64
2023/04/27 12:09:32;;;;;;;5.50;2.05;;;;;;;22.11;28.14;100478.69;10428703;28;20589;-63
2023/04/27 12:14:34;;;;;;;3.58;1.85;;;;;;;22.21;27.67;100483.50;10424875;28;20064;-64
2023/04/27 12:19:36;;;;;;;4.20;1.85;;;;;;;21.77;27.43;100484.16;10417802;28;20049;-64
2023/04/27 12:24:37;;;;;;;6.10;2.40;;;;;;;21.54;27.46;100478.81;10428532;28;20055;-64
2023/04/27 12:29:38;;;;;;;4.63;1.75;;;;;;;22.24;27.31;100463.88;10388379;23;20049;-64
2023/04/27 12:34:41;;;;;;;4.88;1.73;;;;;;;21.78;27.06;100468.56;10372485;28;20084;-64
2023/04/27 12:39:43;;;;;;;8.55;1.77;;;;;;;21.49;27.62;100452.19;10388753;28;20097;-64
2023/04/27 12:44:44;;;;;;;4.15;1.48;;;;;;;21.91;27.22;100457.28;10393698;28;20899;-63
2023/04/27 12:49:45;;;;;;;5.55;2.20;;;;;;;22.21;26.82;100450.63;10374789;28;20091;-62
2023/04/27 12:54:47;;;;;;;6.30;2.03;;;;;;;22.09;26.96;100453.47;10388347;28;20682;-62
2023/04/27 12:59:48;;;;;;;6.43;1.80;;;;;;;21.85;27.13;100450.06;10399099;28;20147;-61
2023/04/27 13:04:50;;;;;;;6.15;2.38;;;;;;;22.06;26.98;100439.44;10377488;28;20371;-59
2023/04/27 13:09:52;;;;;;;5.72;2.03;;;;;;;22.36;26.65;100433.66;10369231;28;20058;-59
2023/04/27 13:14:53;;;;;;;5.40;2.00;;;;;;;22.50;26.41;100434.09;10370463;28;20053;-61
2023/04/27 13:19:55;;;;;;;4.63;2.00;;;;;;;22.49;26.49;100433.28;10354842;28;20466;-59
2023/04/27 13:24:56;;;;;;;7.00;2.10;;;;;;;22.85;26.43;100425.53;10365789;28;20119;-59
2023/04/27 13:29:58;;;;;;;7.93;1.85;;;;;;;23.13;26.12;100429.16;10330939;28;20073;-61
2023/04/27 13:34:59;;;;;;;6.05;2.53;;;;;;;23.62;25.32;100425.50;10328944;28;20054;-59
2023/04/27 13:40:01;;;;;;;4.97;2.05;;;;;;;23.83;25.37;100419.13;10323291;28;20061;-58
2023/04/27 13:45:03;;;;;;;4.53;2.30;;;;;;;24.19;25.42;100419.41;10307993;28;20062;-59
2023/04/27 13:50:06;;;;;;;8.52;1.95;;;;;;;24.25;24.87;100412.84;10329135;28;20065;-60
2023/04/27 13:55:09;;;;;;;9.35;2.10;;;;;;;24.36;24.88;100410.97;10329589;28;20050;-60
2023/04/27 14:00:11;;;;;;;4.35;1.60;;;;;;;24.66;24.66;100404.81;10344073;28;20124;-58
2023/04/27 14:05:14;;;;;;;4.15;1.77;;;;;;;24.37;24.90;100415.38;10322521;28;20073;-59
2023/04/27 14:10:16;;;;;;;6.35;2.22;;;;;;;24.39;24.80;100415.94;10324610;28;20042;-57
2023/04/27 14:15:18;;;;;;;8.20;2.65;;;;;;;24.71;24.25;100413.09;10313553;28;20108;-58
2023/04/27 14:20:20;;;;;;;9.43;2.70;;;;;;;24.52;24.17;100411.91;10327767;28;20081;-58
2023/04/27 14:25:21;;;;;;;4.85;1.80;;;;;;;25.13;23.73;100406.63;10319819;28;20045;-59
2023/04/27 14:30:22;;;;;;;6.15;1.92;;;;;;;25.81;22.48;100407.53;10327252;28;20058;-59
2023/04/27 14:35:24;;;;;;;7.40;2.03;;;;;;;25.37;23.27;100400.63;10332094;28;20034;-58
2023/04/27 14:40:27;;;;;;;4.28;1.73;;;;;;;24.94;23.27;100400.81;10335351;28;20046;-57
2023/04/27 14:45:29;;;;;;;6.78;2.00;;;;;;;24.89;23.26;100402.72;10333969;28;20049;-58
2023/04/27 14:50:48;;;;;;;3.50;2.00;;;;;;;25.43;22.94;100405.03;10329460;28;20060;-59
2023/04/27 14:55:49;;;;;;;34.42;3.05;;;;;;;25.86;23.11;100396.53;10328358;28;20696;-58
2023/04/27 15:00:51;;;;;;;5.80;2.60;;;;;;;25.57;23.06;100404.50;10332861;28;20046;-58
2023/04/27 15:05:52;;;;;;;5.57;1.55;;;;;;;24.99;23.46;100394.50;10333355;28;20069;-58
2023/04/27 15:10:56;;;;;;;4.70;2.30;;;;;;;25.33;23.42;100391.28;10321014;28;20069;-60
2023/04/27 15:15:59;;;;;;;5.20;2.20;;;;;;;25.55;23.43;100384.69;10326218;28;20092;-58
2023/04/27 15:21:01;;;;;;;9.73;2.25;;;;;;;25.72;22.91;100386.06;10324576;28;20057;-58
2023/04/27 15:26:02;;;;;;;6.82;2.33;;;;;;;25.60;22.95;100384.69;10325337;28;20102;-58
2023/04/27 15:31:04;;;;;;;2.63;1.83;;;;;;;25.51;23.19;100373.41;10330540;28;20078;-60
2023/04/27 15:36:05;;;;;;;7.70;1.60;;;;;;;25.35;24.05;100356.06;10323259;28;20042;-58
2023/04/27 15:41:07;;;;;;;7.13;1.98;;;;;;;25.20;24.14;100351.34;10330632;28;20109;-59
2023/04/27 15:46:08;;;;;;;7.68;1.60;;;;;;;25.02;24.26;100341.69;10315789;28;20478;-59
2023/04/27 15:51:10;;;;;;;4.95;1.30;;;;;;;24.80;24.26;100327.34;10312917;28;20445;-58
2023/04/27 15:56:12;;;;;;;5.07;2.00;;;;;;;24.83;24.19;100324.06;10315890;28;20133;-59
2023/04/27 16:01:13;;;;;;;9.38;1.35;;;;;;;24.66;24.13;100327.03;10320987;28;20510;-58
2023/04/27 16:06:15;;;;;;;5.75;1.42;;;;;;;24.76;24.57;100315.22;10335600;28;20050;-60
2023/04/27 16:11:16;;;;;;;8.27;1.88;;;;;;;24.80;24.11;100311.66;10336644;28;20461;-59
2023/04/27 16:16:18;;;;;;;5.85;1.50;;;;;;;24.67;24.45;100304.75;10316658;28;20144;-59
2023/04/27 16:21:20;;;;;;;5.03;1.58;;;;;;;24.80;24.50;100297.09;10338046;28;20143;-58
2023/04/27 16:26:22;;;;;;;4.50;1.50;;;;;;;25.20;23.97;100306.47;10330355;28;20046;-57
2023/04/27 16:31:24;;;;;;;6.88;1.50;;;;;;;25.49;23.29;100306.78;10331433;28;20074;-60
2023/04/27 16:36:26;;;;;;;8.85;1.27;;;;;;;25.59;23.41;100298.50;10316919;28;20045;-58
2023/04/27 16:41:28;;;;;;;5.38;1.45;;;;;;;25.33;23.83;100297.72;10328045;28;20073;-59
2023/04/27 16:46:29;;;;;;;6.47;1.67;;;;;;;24.97;23.86;100289.41;10326022;28;20117;-59
2023/04/27 16:51:31;;;;;;;6.20;1.88;;;;;;;24.40;24.12;100290.34;10324086;28;20050;-58
2023/04/27 16:56:34;;;;;;;3.40;1.38;;;;;;;23.98;24.60;100305.03;10296111;28;20065;-58
2023/04/27 17:01:36;;;;;;;5.60;1.55;;;;;;;23.54;24.97;100304.16;10299957;28;20047;-58
2023/04/27 17:06:39;;;;;;;3.47;1.52;;;;;;;23.25;25.21;100303.66;10320645;28;20058;-60
2023/04/27 17:11:41;;;;;;;7.43;1.23;;;;;;;23.07;25.88;100321.31;10309268;28;20050;-59
2023/04/27 17:16:42;;;;;;;7.20;1.30;;;;;;;22.77;26.06;100319.09;10309004;28;20054;-58
2023/04/27 17:21:44;;;;;;;5.47;1.10;;;;;;;22.52;26.34;100314.97;10308743;28;20058;-59
2023/04/27 17:26:47;;;;;;;7.38;1.60;;;;;;;22.22;26.60;100312.66;10307936;28;20105;-59
2023/04/27 17:31:49;;;;;;;6.53;1.33;;;;;;;22.01;27.24;100307.97;10323745;28;20469;-58
2023/04/27 17:36:50;;;;;;;5.60;1.83;;;;;;;21.74;27.23;100292.25;10311766;28;20129;-59
2023/04/27 17:41:52;;;;;;;6.47;1.10;;;;;;;21.44;27.71;100290.72;10316562;28;20046;-59
2023/04/27 17:46:53;;;;;;;3.67;1.13;;;;;;;21.17;28.28;100296.84;10326717;28;20552;-58
2023/04/27 17:51:55;;;;;;;3.05;1.27;;;;;;;20.93;28.59;100296.16;10333128;28;20042;-59
2023/04/27 17:56:56;;;;;;;4.88;1.20;;;;;;;20.70;29.13;100304.47;10329039;28;20055;-58
2023/04/27 18:01:58;;;;;;;5.40;2.78;;;;;;;20.50;28.97;100302.16;10312904;28;20109;-59
2023/04/27 18:06:59;;;;;;;8.55;3.03;;;;;;;20.34;29.75;100301.81;10316801;28;20053;-59
2023/04/27 18:12:01;;;;;;;5.10;1.45;;;;;;;20.09;30.38;100298.56;10333137;28;20100;-58
2023/04/27 18:17:02;;;;;;;9.30;2.60;;;;;;;19.75;31.70;100299.19;10327951;28;20046;-58
2023/04/27 18:22:04;;;;;;;6.20;2.17;;;;;;;19.53;32.47;100298.94;10323581;28;20034;-59
2023/04/27 18:27:05;;;;;;;9.68;2.97;;;;;;;19.31;33.25;100293.22;10319318;28;20513;-58
2023/04/27 18:32:07;;;;;;;17.73;4.07;;;;;;;19.09;34.11;100300.28;10321382;28;20045;-58
2023/04/27 18:37:09;;;;;;;9.23;3.47;;;;;;;18.80;34.38;100291.94;10332282;28;20132;-59
2023/04/27 18:42:10;;;;;;;9.23;3.60;;;;;;;18.55;34.89;100295.56;10330718;28;20073;-60
2023/04/27 18:47:12;;;;;;;10.88;3.55;;;;;;;18.35;35.60;100289.56;10323684;28;20054;-58
2023/04/27 18:52:14;;;;;;;6.18;3.05;;;;;;;18.17;35.80;100301.31;10317949;28;20062;-59
2023/04/27 18:57:15;;;;;;;12.18;3.40;;;;;;;17.94;36.20;100308.22;10315440;28;20437;-60
2023/04/27 19:02:17;;;;;;;9.05;3.67;;;;;;;17.66;36.86;100319.56;10312542;28;20125;-60
2023/04/27 19:07:18;;;;;;;10.77;3.38;;;;;;;17.48;37.06;100323.09;10313166;28;20046;-60
2023/04/27 19:12:21;;;;;;;5.60;3.70;;;;;;;17.19;37.29;100330.81;10314682;28;20136;-59
2023/04/27 19:17:22;;;;;;;6.13;3.35;;;;;;;16.88;37.99;100334.38;10298471;28;20137;-59
2023/04/27 19:22:25;;;;;;;11.68;4.00;;;;;;;16.63;38.03;100326.13;10323675;28;20134;-59
2023/04/27 19:27:27;;;;;;;5.63;3.40;;;;;;;16.68;38.25;100323.59;10332107;28;20054;-60
2023/04/27 19:32:29;;;;;;;12.25;4.40;;;;;;;16.67;38.69;100321.94;10318541;28;20077;-59
2023/04/27 19:37:31;;;;;;;8.88;4.00;;;;;;;16.62;39.11;100316.31;10314353;28;20053;-59
2023/04/27 19:42:32;;;;;;;8.48;3.58;;;;;;;16.53;39.23;100318.47;10327412;28;20091;-59
2023/04/27 19:47:34;;;;;;;5.97;3.63;;;;;;;16.42;39.89;100322.66;10323430;28;20069;-59
2023/04/27 19:52:35;;;;;;;9.77;4.30;;;;;;;16.37;40.05;100321.63;10316181;28;20046;-61
2023/04/27 19:57:37;;;;;;;8.18;3.67;;;;;;;16.37;40.87;100311.63;10323760;28;20156;-59
2023/04/27 20:02:38;;;;;;;5.68;3.00;;;;;;;16.30;41.63;100302.69;10312661;28;20588;-60
2023/04/27 20:07:40;;;;;;;6.57;3.85;;;;;;;16.20;41.84;100296.88;10324659;28;20046;-59
2023/04/27 20:12:42;;;;;;;7.05;3.47;;;;;;;16.05;42.29;100295.28;10319590;28;20050;-59
2023/04/27 20:17:56;;;;;;;5.35;3.80;;;;;;;15.99;41.96;100296.09;10325127;28;20486;-59
2023/04/27 20:22:58;;;;;;;8.02;3.13;;;;;;;15.84;41.69;100290.13;10324238;28;20050;-59
2023/04/27 20:27:59;;;;;;;9.55;3.80;;;;;;;15.62;41.76;100293.03;10320910;28;20109;-59
2023/04/27 20:33:02;;;;;;;13.55;3.85;;;;;;;15.53;41.52;100293.47;10319329;28;20081;-60
2023/04/27 20:38:04;;;;;;;10.68;4.03;;;;;;;15.48;41.23;100283.25;10324225;28;20122;-59
2023/04/27 20:43:06;;;;;;;6.43;3.05;;;;;;;15.54;41.16;100279.72;10323861;28;20133;-59
2023/04/27 20:48:10;;;;;;;4.90;2.95;;;;;;;15.60;41.11;100272.59;10300735;28;20124;-58
2023/04/27 20:53:12;;;;;;;7.05;2.80;;;;;;;15.67;41.18;100268.00;10320669;28;20367;-58
2023/04/27 20:58:13;;;;;;;10.82;2.60;;;;;;;15.71;41.26;100254.88;10323373;28;20144;-58
2023/04/27 21:03:15;;;;;;;7.20;3.42;;;;;;;15.66;41.69;100269.91;10321930;28;20116;-59
2023/04/27 21:08:16;;;;;;;5.80;3.20;;;;;;;15.67;41.92;100268.84;10326205;28;20050;-58
2023/04/27 21:13:18;;;;;;;11.00;4.45;;;;;;;15.67;42.41;100276.13;10329082;28;20046;-57
2023/04/27 21:18:20;;;;;;;10.57;5.25;;;;;;;15.64;43.12;100272.00;10339432;28;20080;-58
2023/04/27 21:23:34;;;;;;;9.68;4.47;;;;;;;15.61;43.72;100266.16;10331186;28;20046;-58
2023/04/27 21:28:35;;;;;;;23.15;9.77;;;;;;;15.56;43.98;100260.53;10326248;28;20050;-59
2023/04/27 21:33:37;;;;;;;32.70;12.65;;;;;;;15.50;44.49;100253.25;10331194;28;20066;-58
2023/04/27 21:38:38;;;;;;;20.63;10.38;;;;;;;15.46;44.24;100250.13;10321384;28;20148;-58
2023/04/27 21:43:40;;;;;;;9.93;4.63;;;;;;;15.44;44.19;100250.34;10330970;28;20088;-59
2023/04/27 21:48:42;;;;;;;14.30;3.65;;;;;;;15.41;44.03;100249.94;10328176;28;20078;-59
2023/04/27 21:53:43;;;;;;;6.32;3.30;;;;;;;15.37;43.96;100245.97;10332609;28;20134;-58
2023/04/27 21:58:45;;;;;;;8.50;3.00;;;;;;;15.31;44.27;100250.34;10331093;28;20116;-59
2023/04/27 22:03:46;;;;;;;8.00;3.25;;;;;;;15.27;44.28;100249.94;10323218;28;20047;-59
2023/04/27 22:08:48;;;;;;;8.65;3.20;;;;;;;15.24;44.29;100247.66;10325609;28;20056;-59
2023/04/27 22:13:50;;;;;;;13.38;3.47;;;;;;;15.26;44.29;100248.28;10327043;28;20046;-61
2023/04/27 22:18:52;;;;;;;9.48;3.03;;;;;;;15.16;44.32;100242.44;10328945;28;20085;-59
2023/04/27 22:23:54;;;;;;;5.50;2.30;;;;;;;15.17;44.45;100246.00;10324244;28;20077;-59
2023/04/27 22:28:55;;;;;;;8.43;2.97;;;;;;;15.17;44.49;100230.56;10336915;28;20073;-59
2023/04/27 22:33:57;;;;;;;6.25;2.70;;;;;;;15.17;44.77;100222.44;10321188;28;20150;-58
2023/04/27 22:38:59;;;;;;;8.32;2.75;;;;;;;15.18;45.29;100215.16;10338270;28;20046;-58
2023/04/27 22:44:00;;;;;;;6.18;2.60;;;;;;;15.10;45.31;100235.16;10338047;28;20088;-58
2023/04/27 22:49:02;;;;;;;3.42;2.22;;;;;;;14.97;45.63;100224.31;10329520;28;20054;-59
2023/04/27 22:54:03;;;;;;;7.03;2.85;;;;;;;14.96;45.58;100211.84;10323407;28;20043;-58
2023/04/27 22:59:04;;;;;;;8.80;2.70;;;;;;;14.98;45.73;100215.97;10336611;28;20073;-58
2023/04/27 23:04:07;;;;;;;6.43;2.47;;;;;;;14.89;45.88;100206.44;10335855;28;20042;-58
2023/04/27 23:09:09;;;;;;;5.15;2.38;;;;;;;14.97;45.94;100218.91;10333369;28;20047;-58
2023/04/27 23:14:11;;;;;;;5.70;2.83;;;;;;;15.03;45.67;100199.13;10336444;28;20076;-59